createdAt,value
2018-06-21T16:43:19.433Z,997.80
2018-06-21T16:44:19.479Z,997.63
2018-06-21T16:45:19.530Z,997.70
2018-06-21T16:46:19.571Z,997.78
2018-06-21T16:47:19.750Z,997.73
2018-06-21T16:48:19.665Z,997.77
2018-06-21T16:49:19.720Z,997.74
2018-06-21T16:50:19.765Z,997.84
2018-06-21T16:51:19.805Z,997.76
2018-06-21T16:52:19.855Z,997.91
2018-06-21T16:53:20.075Z,998.01
2018-06-21T16:54:20.043Z,998.07
2018-06-21T16:55:19.992Z,998.01
2018-06-21T16:56:20.041Z,997.98
2018-06-21T16:57:20.091Z,998.09
2018-06-21T16:58:20.129Z,997.96
2018-06-21T16:59:20.199Z,997.63
2018-06-21T17:00:20.221Z,998.02
2018-06-21T17:01:20.267Z,997.87
2018-06-21T17:02:20.315Z,997.92
2018-06-21T17:03:20.362Z,997.83
2018-06-21T17:04:20.407Z,997.83
2018-06-21T17:05:20.457Z,997.76
2018-06-21T17:06:20.499Z,997.63
2018-06-21T17:07:20.547Z,997.56
2018-06-21T17:08:20.590Z,997.66
2018-06-21T17:09:20.636Z,997.63
2018-06-21T17:10:20.690Z,997.60
2018-06-21T17:11:20.726Z,997.54
2018-06-21T17:12:20.773Z,997.48
2018-06-21T17:13:20.817Z,997.64
2018-06-21T17:14:20.861Z,997.63
2018-06-21T17:15:20.911Z,997.52
2018-06-21T17:16:20.961Z,997.70
2018-06-21T17:17:20.995Z,997.86
2018-06-21T17:18:21.046Z,997.86
2018-06-21T17:19:21.241Z,997.82
2018-06-21T17:20:21.128Z,997.83
2018-06-21T17:21:21.176Z,997.93
2018-06-21T17:22:21.214Z,998.05
2018-06-21T17:23:21.259Z,997.81
2018-06-21T17:24:21.305Z,997.72
2018-06-21T17:25:21.345Z,997.89
2018-06-21T17:26:21.395Z,997.69
2018-06-21T17:27:21.434Z,997.60
2018-06-21T17:28:21.485Z,997.64
2018-06-21T17:29:21.524Z,997.76
2018-06-21T17:30:21.564Z,997.61
2018-06-21T17:31:21.611Z,997.74
2018-06-21T17:32:21.648Z,997.76
2018-06-21T17:33:21.686Z,997.83
2018-06-21T17:34:21.731Z,997.80
2018-06-21T17:35:21.774Z,997.77
2018-06-21T17:36:21.816Z,997.80
2018-06-21T17:37:21.862Z,997.80
2018-06-21T17:38:21.906Z,997.98
2018-06-21T17:39:21.940Z,997.97
2018-06-21T17:40:21.989Z,997.95
2018-06-21T17:41:22.022Z,997.87
2018-06-21T17:42:22.065Z,997.95
2018-06-21T17:43:22.122Z,997.87
2018-06-21T17:44:22.148Z,998.01
2018-06-21T17:45:22.207Z,997.84
2018-06-21T17:46:22.232Z,997.97
2018-06-21T17:47:22.269Z,997.90
2018-06-21T17:48:22.316Z,997.95
2018-06-21T17:49:22.353Z,997.97
2018-06-21T17:50:22.395Z,998.03
2018-06-21T17:51:22.466Z,998.07
2018-06-21T17:52:22.478Z,998.22
2018-06-21T17:53:22.513Z,998.14
2018-06-21T17:54:22.555Z,998.12
2018-06-21T17:55:22.600Z,998.07
2018-06-21T17:56:22.637Z,998.02
2018-06-21T17:57:22.687Z,998.13
2018-06-21T17:58:22.722Z,998.20
2018-06-21T17:59:22.756Z,998.02
2018-06-21T18:00:22.806Z,998.10
2018-06-21T18:01:22.835Z,998.10
2018-06-21T18:02:22.931Z,998.08
2018-06-21T18:03:22.920Z,998.02
2018-06-21T18:04:22.961Z,998.03
2018-06-21T18:05:22.998Z,998.11
2018-06-21T18:06:23.038Z,998.13
2018-06-21T18:07:23.081Z,998.06
2018-06-21T18:08:23.118Z,998.12
2018-06-21T18:09:23.157Z,998.09
2018-06-21T18:10:23.373Z,998.08
2018-06-21T18:11:23.236Z,998.07
2018-06-21T18:12:23.285Z,998.09
2018-06-21T18:13:23.343Z,998.03
2018-06-21T18:14:23.355Z,998.13
2018-06-21T18:15:23.407Z,998.04
2018-06-21T18:16:23.435Z,998.09
2018-06-21T18:17:23.475Z,998.04
2018-06-21T18:18:23.513Z,998.12
2018-06-21T18:19:23.563Z,998.10
2018-06-21T18:20:23.592Z,998.07
2018-06-21T18:21:23.631Z,998.12
2018-06-21T18:22:23.672Z,998.14
2018-06-21T18:23:23.712Z,998.21
2018-06-21T18:24:23.753Z,998.19
2018-06-21T18:25:23.788Z,998.19
2018-06-21T18:26:23.836Z,998.13
2018-06-21T18:27:23.869Z,998.14
2018-06-21T18:28:23.907Z,998.10
2018-06-21T18:29:23.953Z,998.11
2018-06-21T18:30:23.993Z,998.12
2018-06-21T18:31:24.029Z,998.18
2018-06-21T18:32:24.063Z,998.12
2018-06-21T18:33:24.103Z,998.12
2018-06-21T18:34:24.146Z,998.16
2018-06-21T18:35:24.246Z,998.19
2018-06-21T18:36:24.233Z,998.16
2018-06-21T18:37:24.259Z,998.23
2018-06-21T18:38:24.298Z,998.23
2018-06-21T18:39:24.338Z,998.20
2018-06-21T18:40:24.377Z,998.26
2018-06-21T18:41:24.416Z,998.24
2018-06-21T18:42:24.454Z,998.23
2018-06-21T18:43:24.498Z,998.29
2018-06-21T18:44:24.555Z,998.29
2018-06-21T18:45:24.576Z,998.30
2018-06-21T18:46:24.612Z,998.34
2018-06-21T18:47:24.652Z,998.33
2018-06-21T18:48:24.689Z,998.29
2018-06-21T18:49:24.728Z,998.27
2018-06-21T18:50:24.765Z,998.30
2018-06-21T18:51:24.818Z,998.34
2018-06-21T18:52:24.845Z,998.29
2018-06-21T18:53:24.881Z,998.30
2018-06-21T18:54:24.948Z,998.28
2018-06-21T18:55:24.961Z,998.31
2018-06-21T18:56:25.004Z,998.26
2018-06-21T18:57:25.042Z,998.30
2018-06-21T18:58:25.077Z,998.39
2018-06-21T18:59:25.117Z,998.33
2018-06-21T19:00:25.166Z,998.37
2018-06-21T19:01:25.204Z,998.42
2018-06-21T19:02:25.239Z,998.41
2018-06-21T19:03:25.411Z,998.51
2018-06-21T19:04:25.383Z,998.46
2018-06-21T19:05:25.348Z,998.45
2018-06-21T19:06:25.394Z,998.40
2018-06-21T19:07:25.426Z,998.51
2018-06-21T19:08:25.464Z,998.49
2018-06-21T19:09:25.511Z,998.46
2018-06-21T19:10:25.657Z,998.48
2018-06-21T19:11:25.591Z,998.38
2018-06-21T19:12:25.628Z,998.42
2018-06-21T19:13:25.666Z,998.51
2018-06-21T19:14:25.700Z,998.40
2018-06-21T19:15:25.734Z,998.41
2018-06-21T19:16:25.772Z,998.43
2018-06-21T19:17:25.814Z,998.42
2018-06-21T19:18:25.852Z,998.52
2018-06-21T19:19:25.906Z,998.47
2018-06-21T19:20:25.926Z,998.54
2018-06-21T19:21:25.964Z,998.55
2018-06-21T19:22:26.003Z,998.55
2018-06-21T19:23:26.051Z,998.61
2018-06-21T19:24:26.080Z,998.64
2018-06-21T19:25:26.120Z,998.66
2018-06-21T19:26:26.199Z,998.68
2018-06-21T19:27:26.204Z,998.63
2018-06-21T19:28:26.241Z,998.66
2018-06-21T19:29:26.441Z,998.67
2018-06-21T19:30:26.310Z,998.72
2018-06-21T19:31:26.348Z,998.74
2018-06-21T19:32:26.387Z,998.76
2018-06-21T19:33:26.426Z,998.70
2018-06-21T19:34:26.469Z,998.74
2018-06-21T19:35:26.504Z,998.76
2018-06-21T19:36:26.551Z,998.78
2018-06-21T19:37:26.575Z,998.76
2018-06-21T19:38:26.615Z,998.77
2018-06-21T19:39:26.653Z,998.77
2018-06-21T19:40:26.692Z,998.77
2018-06-21T19:41:26.730Z,998.78
2018-06-21T19:42:26.778Z,998.77
2018-06-21T19:43:26.809Z,998.84
2018-06-21T19:44:26.846Z,998.81
2018-06-21T19:45:26.889Z,998.84
2018-06-21T19:46:26.928Z,998.85
2018-06-21T19:47:26.964Z,998.89
2018-06-21T19:48:26.997Z,998.92
2018-06-21T19:49:27.067Z,998.92
2018-06-21T19:50:27.073Z,998.94
2018-06-21T19:51:27.110Z,998.87
2018-06-21T19:52:27.149Z,998.93
2018-06-21T19:53:27.190Z,999.01
2018-06-21T19:54:27.225Z,999.05
2018-06-21T19:55:27.266Z,999.01
2018-06-21T19:56:27.304Z,999.05
2018-06-21T19:57:27.345Z,999.02
2018-06-21T19:58:27.459Z,999.03
2018-06-21T19:59:27.418Z,998.99
2018-06-21T20:00:27.557Z,999.01
2018-06-21T20:01:27.497Z,998.99
2018-06-21T20:02:27.544Z,999.05
2018-06-21T20:03:27.568Z,999.10
2018-06-21T20:04:27.609Z,999.11
2018-06-21T20:05:27.651Z,999.13
2018-06-21T20:06:27.688Z,999.09
2018-06-21T20:07:27.732Z,999.06
2018-06-21T20:08:27.761Z,999.13
2018-06-21T20:09:27.803Z,999.08
2018-06-21T20:10:27.833Z,999.15
2018-06-21T20:11:27.869Z,999.15
2018-06-21T20:12:27.912Z,999.19
2018-06-21T20:13:27.946Z,999.19
2018-06-21T20:14:27.986Z,999.22
2018-06-21T20:15:28.077Z,999.26
2018-06-21T20:16:28.062Z,999.28
2018-06-21T20:17:28.101Z,999.32
2018-06-21T20:18:28.186Z,999.33
2018-06-21T20:19:28.181Z,999.36
2018-06-21T20:20:28.212Z,999.43
2018-06-21T20:21:28.251Z,999.46
2018-06-21T20:22:28.298Z,999.53
2018-06-21T20:23:28.328Z,999.61
2018-06-21T20:24:28.364Z,999.80
2018-06-21T20:25:28.405Z,999.66
2018-06-21T20:26:28.449Z,999.68
2018-06-21T20:27:28.483Z,999.62
2018-06-21T20:28:28.515Z,999.70
2018-06-21T20:29:28.557Z,999.68
2018-06-21T20:30:28.592Z,999.63
2018-06-21T20:31:28.628Z,999.51
2018-06-21T20:32:28.666Z,999.47
2018-06-21T20:33:28.703Z,999.49
2018-06-21T20:34:28.741Z,999.43
2018-06-21T20:35:28.779Z,999.44
2018-06-21T20:36:28.815Z,999.42
2018-06-21T20:37:28.860Z,999.45
2018-06-21T20:38:28.892Z,999.47
2018-06-21T20:39:28.928Z,999.47
2018-06-21T20:40:28.976Z,999.46
2018-06-21T20:41:29.003Z,999.45
2018-06-21T20:42:29.043Z,999.49
2018-06-21T20:43:29.076Z,999.52
2018-06-21T20:44:29.113Z,999.53
2018-06-21T20:45:29.154Z,999.53
2018-06-21T20:46:29.188Z,999.51
2018-06-21T20:47:29.225Z,999.53
2018-06-21T20:48:29.267Z,999.58
2018-06-21T20:49:29.315Z,999.60
2018-06-21T20:50:29.390Z,999.58
2018-06-21T20:51:29.373Z,999.58
2018-06-21T20:52:29.414Z,999.61
2018-06-21T20:53:29.466Z,999.57
2018-06-21T20:54:29.484Z,999.56
2018-06-21T20:55:29.522Z,999.57
2018-06-21T20:56:29.565Z,999.59
2018-06-21T20:57:29.596Z,999.64
2018-06-21T20:58:29.632Z,999.66
2018-06-21T20:59:29.672Z,999.70
2018-06-21T21:00:29.709Z,999.63
2018-06-21T21:01:29.746Z,999.67
2018-06-21T21:02:29.889Z,999.69
2018-06-21T21:03:29.853Z,999.66
2018-06-21T21:04:29.862Z,999.68
2018-06-21T21:05:29.889Z,999.66
2018-06-21T21:06:29.926Z,999.63
2018-06-21T21:07:29.963Z,999.63
2018-06-21T21:08:30.000Z,999.65
2018-06-21T21:09:30.046Z,999.64
2018-06-21T21:10:30.073Z,999.67
2018-06-21T21:11:30.115Z,999.71
2018-06-21T21:12:30.145Z,999.68
2018-06-21T21:13:30.182Z,999.73
2018-06-21T21:14:30.217Z,999.75
2018-06-21T21:15:30.262Z,999.74
2018-06-21T21:16:30.325Z,999.75
2018-06-21T21:17:30.326Z,999.74
2018-06-21T21:18:30.363Z,999.73
2018-06-21T21:19:30.400Z,999.78
2018-06-21T21:20:30.440Z,999.83
2018-06-21T21:21:30.474Z,999.81
2018-06-21T21:22:30.533Z,999.80
2018-06-21T21:23:30.549Z,999.80
2018-06-21T21:24:30.616Z,999.84
2018-06-21T21:25:30.621Z,999.79
2018-06-21T21:26:30.681Z,999.75
2018-06-21T21:27:30.744Z,999.80
2018-06-21T21:28:30.812Z,999.79
2018-06-21T21:29:30.767Z,999.84
2018-06-21T21:30:30.806Z,999.87
2018-06-21T21:31:30.847Z,999.90
2018-06-21T21:32:30.945Z,999.91
2018-06-21T21:33:30.912Z,999.90
2018-06-21T21:34:30.949Z,999.93
2018-06-21T21:35:30.997Z,999.85
2018-06-21T21:36:31.089Z,999.90
2018-06-21T21:37:31.057Z,999.92
2018-06-21T21:38:31.095Z,999.85
2018-06-21T21:39:31.131Z,999.93
2018-06-21T21:40:31.172Z,999.93
2018-06-21T21:41:31.233Z,999.89
2018-06-21T21:42:31.245Z,999.93
2018-06-21T21:43:31.278Z,999.91
2018-06-21T21:44:31.315Z,999.93
2018-06-21T21:45:31.350Z,999.94
2018-06-21T21:46:31.388Z,999.94
2018-06-21T21:47:31.424Z,999.89
2018-06-21T21:48:31.460Z,999.91
2018-06-21T21:49:31.501Z,999.92
2018-06-21T21:50:31.533Z,999.86
2018-06-21T21:51:31.568Z,999.89
2018-06-21T21:52:31.666Z,999.88
2018-06-21T21:53:31.652Z,999.89
2018-06-21T21:54:31.687Z,999.86
2018-06-21T21:55:31.716Z,999.89
2018-06-21T21:56:31.755Z,999.88
2018-06-21T21:57:31.805Z,999.90
2018-06-21T21:58:31.826Z,999.90
2018-06-21T21:59:31.861Z,999.94
2018-06-21T22:00:31.898Z,999.90
2018-06-21T22:01:31.964Z,999.86
2018-06-21T22:02:31.969Z,999.90
2018-06-21T22:03:32.009Z,999.80
2018-06-21T22:04:32.054Z,999.87
2018-06-21T22:05:32.080Z,999.84
2018-06-21T22:06:32.159Z,999.83
2018-06-21T22:07:32.163Z,999.81
2018-06-21T22:08:32.192Z,999.91
2018-06-21T22:09:32.242Z,999.87
2018-06-21T22:10:32.263Z,999.86
2018-06-21T22:11:32.300Z,999.88
2018-06-21T22:12:32.336Z,999.85
2018-06-21T22:13:32.375Z,999.86
2018-06-21T22:14:32.414Z,999.87
2018-06-21T22:15:32.446Z,999.86
2018-06-21T22:16:32.482Z,999.87
2018-06-21T22:17:32.523Z,999.90
2018-06-21T22:18:32.552Z,999.95
2018-06-21T22:19:32.590Z,999.98
2018-06-21T22:20:32.629Z,999.96
2018-06-21T22:21:32.675Z,1000.03
2018-06-21T22:22:32.699Z,999.98
2018-06-21T22:23:32.737Z,1000.00
2018-06-21T22:24:32.772Z,1000.02
2018-06-21T22:25:32.808Z,1000.05
2018-06-21T22:26:32.852Z,1000.03
2018-06-21T22:27:32.882Z,1000.02
2018-06-21T22:28:32.917Z,1000.08
2018-06-21T22:29:32.953Z,1000.08
2018-06-21T22:30:33.012Z,1000.08
2018-06-21T22:31:33.027Z,1000.07
2018-06-21T22:32:33.062Z,1000.09
2018-06-21T22:33:33.099Z,1000.17
2018-06-21T22:34:33.144Z,1000.09
2018-06-21T22:35:33.173Z,1000.13
2018-06-21T22:36:33.207Z,1000.08
2018-06-21T22:37:33.252Z,1000.13
2018-06-21T22:38:33.285Z,1000.11
2018-06-21T22:39:33.317Z,1000.14
2018-06-21T22:40:33.354Z,1000.08
2018-06-21T22:41:33.389Z,1000.09
2018-06-21T22:42:33.429Z,1000.08
2018-06-21T22:43:33.461Z,1000.09
2018-06-21T22:44:33.498Z,1000.10
2018-06-21T22:45:33.535Z,1000.08
2018-06-21T22:46:33.579Z,1000.07
2018-06-21T22:47:33.607Z,1000.10
2018-06-21T22:48:33.642Z,1000.08
2018-06-21T22:49:33.682Z,1000.07
2018-06-21T22:50:33.770Z,1000.12
2018-06-21T22:51:33.770Z,1000.05
2018-06-21T22:52:33.788Z,1000.06
2018-06-21T22:53:33.821Z,1000.05
2018-06-21T22:54:33.858Z,1000.04
2018-06-21T22:55:33.895Z,1000.05
2018-06-21T22:56:33.933Z,1000.03
2018-06-21T22:57:33.974Z,1000.04
2018-06-21T22:58:34.006Z,1000.02
2018-06-21T22:59:34.039Z,1000.02
2018-06-21T23:00:34.086Z,1000.04
2018-06-21T23:01:34.113Z,1000.03
2018-06-21T23:02:34.147Z,999.99
2018-06-21T23:03:34.184Z,999.94
2018-06-21T23:04:34.272Z,999.95
2018-06-21T23:05:34.275Z,999.91
2018-06-21T23:06:34.300Z,999.91
2018-06-21T23:07:34.333Z,999.95
2018-06-21T23:08:34.364Z,999.92
2018-06-21T23:09:34.401Z,999.92
2018-06-21T23:10:34.435Z,999.87
2018-06-21T23:11:34.484Z,999.92
2018-06-21T23:12:34.510Z,999.88
2018-06-21T23:13:34.547Z,999.88
2018-06-21T23:14:34.597Z,999.83
2018-06-21T23:15:34.622Z,999.91
2018-06-21T23:16:34.653Z,999.89
2018-06-21T23:17:34.691Z,999.87
2018-06-21T23:18:34.777Z,999.93
2018-06-21T23:19:34.760Z,999.90
2018-06-21T23:20:34.798Z,999.90
2018-06-21T23:21:34.833Z,999.92
2018-06-21T23:22:34.868Z,999.93
2018-06-21T23:23:34.903Z,999.95
2018-06-21T23:24:34.943Z,999.94
2018-06-21T23:25:34.977Z,999.95
2018-06-21T23:26:35.012Z,999.97
2018-06-21T23:27:35.052Z,999.93
2018-06-21T23:28:35.088Z,999.90
2018-06-21T23:29:35.121Z,999.93
2018-06-21T23:30:35.161Z,999.97
2018-06-21T23:31:35.192Z,999.92
2018-06-21T23:32:35.230Z,999.92
2018-06-21T23:33:35.266Z,999.93
2018-06-21T23:34:35.300Z,999.94
2018-06-21T23:35:35.336Z,999.97
2018-06-21T23:36:35.373Z,999.97
2018-06-21T23:37:35.412Z,999.97
2018-06-21T23:38:35.451Z,999.96
2018-06-21T23:39:35.487Z,999.95
2018-06-21T23:40:35.517Z,999.90
2018-06-21T23:41:35.550Z,999.99
2018-06-21T23:42:35.590Z,999.97
2018-06-21T23:43:35.623Z,999.99
2018-06-21T23:44:35.822Z,1000.01
2018-06-21T23:45:35.695Z,1000.04
2018-06-21T23:46:35.731Z,1000.01
2018-06-21T23:47:35.767Z,1000.04
2018-06-21T23:48:35.804Z,999.97
2018-06-21T23:49:35.842Z,1000.00
2018-06-21T23:50:35.875Z,1000.02
2018-06-21T23:51:35.918Z,1000.05
2018-06-21T23:52:35.948Z,1000.02
2018-06-21T23:53:35.981Z,1000.05
2018-06-21T23:54:36.020Z,1000.01
2018-06-21T23:55:36.054Z,1000.00
2018-06-21T23:56:36.089Z,1000.03
2018-06-21T23:57:36.123Z,1000.08
2018-06-21T23:58:36.161Z,1000.07
2018-06-21T23:59:36.195Z,1000.09
